KORS Airport Information

Runway Information
Runway 16 Length 2900 ft width 60 ft
Elevation 31 ft Threshold 0 ft Heading 0
Runway 34 Length 2900 ft Width 60 ft
Elevation 31 ft Threshold 0 ft Heading 0
Airport Frequencies
Airport Navaids
Airport Weather Information & NOTAM
ADDS - METARS form results

(1253 UTC 25 May 2019)
Data provider http://aviationweather.gov/metar/data/
 
METAR text: KORS 251235Z AUTO 18008KT 9SM FEW036 BKN050 OVC060 13/11 A2990 RMK AO2
Conditions at: KORS (EASTSOUND/ORCAS , WA, US) observed 1235 UTC 25 May 2019
Temperature: 13.0°C (55°F)
Dewpoint: 11.0°C (52°F) [RH = 88%]
Pressure (altimeter): 29.90 inches Hg (1012.6 mb)
Winds: from the S (180 degrees) at 9 MPH (8 knots; 4.1 m/s)
Visibility: 9 miles (14 km)
Ceiling: 5000 feet AGL
Clouds: few clouds at 3600 feet AGL
broken clouds at 5000 feet AGL
overcast cloud deck at 6000 feet AGL
Weather: automated observation with no human augmentation;
there may or may not be significant weather present at this time

METAR text: KORS 251215Z AUTO 17006KT 8SM FEW033 SCT047 OVC060 13/11 A2991 RMK AO2
Conditions at: KORS (EASTSOUND/ORCAS , WA, US) observed 1215 UTC 25 May 2019
Temperature: 13.0°C (55°F)
Dewpoint: 11.0°C (52°F) [RH = 88%]
Pressure (altimeter): 29.91 inches Hg (1013.0 mb)
Winds: from the S (170 degrees) at 7 MPH (6 knots; 3.1 m/s)
Visibility: 8 miles (13 km)
Ceiling: 6000 feet AGL
Clouds: few clouds at 3300 feet AGL
scattered clouds at 4700 feet AGL
overcast cloud deck at 6000 feet AGL
Weather: automated observation with no human augmentation;
there may or may not be significant weather present at this time

METAR text: KORS 251155Z AUTO 17008KT 9SM BKN031 BKN044 OVC060 13/11 A2991 RMK AO2
Conditions at: KORS (EASTSOUND/ORCAS , WA, US) observed 1155 UTC 25 May 2019
Temperature: 13.0°C (55°F)
Dewpoint: 11.0°C (52°F) [RH = 88%]
Pressure (altimeter): 29.91 inches Hg (1013.0 mb)
Winds: from the S (170 degrees) at 9 MPH (8 knots; 4.1 m/s)
Visibility: 9 miles (14 km)
Ceiling: 3100 feet AGL
Clouds: broken clouds at 3100 feet AGL
broken clouds at 4400 feet AGL
overcast cloud deck at 6000 feet AGL
Weather: automated observation with no human augmentation;
there may or may not be significant weather present at this time